sensor_id;sensor_type;location;lat;lon;timestamp;P1;durP1;ratioP1;P2;durP2;ratioP2
8036;SDS011;4061;51.360;7.340;2023-02-12T00:00:42;42.73;;;17.40;;
8036;SDS011;4061;51.360;7.340;2023-02-12T00:03:10;50.63;;;18.17;;
8036;SDS011;4061;51.360;7.340;2023-02-12T00:05:37;58.20;;;17.60;;
8036;SDS011;4061;51.360;7.340;2023-02-12T00:08:05;53.47;;;18.87;;
8036;SDS011;4061;51.360;7.340;2023-02-12T00:10:34;43.27;;;18.83;;
8036;SDS011;4061;51.360;7.340;2023-02-12T00:13:01;47.60;;;18.23;;
8036;SDS011;4061;51.360;7.340;2023-02-12T00:15:28;50.80;;;17.73;;
8036;SDS011;4061;51.360;7.340;2023-02-12T00:17:55;46.23;;;18.77;;
8036;SDS011;4061;51.360;7.340;2023-02-12T00:20:22;48.30;;;18.47;;
8036;SDS011;4061;51.360;7.340;2023-02-12T00:22:50;54.07;;;20.03;;
8036;SDS011;4061;51.360;7.340;2023-02-12T00:25:17;45.33;;;18.10;;
8036;SDS011;4061;51.360;7.340;2023-02-12T00:27:46;56.23;;;18.27;;
8036;SDS011;4061;51.360;7.340;2023-02-12T00:30:13;53.43;;;18.97;;
8036;SDS011;4061;51.360;7.340;2023-02-12T00:32:40;49.03;;;18.17;;
8036;SDS011;4061;51.360;7.340;2023-02-12T00:35:07;45.20;;;18.07;;
8036;SDS011;4061;51.360;7.340;2023-02-12T00:37:34;44.97;;;17.93;;
8036;SDS011;4061;51.360;7.340;2023-02-12T00:40:02;54.53;;;17.77;;
8036;SDS011;4061;51.360;7.340;2023-02-12T00:42:29;43.33;;;17.67;;
8036;SDS011;4061;51.360;7.340;2023-02-12T00:44:58;49.23;;;18.87;;
8036;SDS011;4061;51.360;7.340;2023-02-12T00:47:25;47.30;;;17.73;;
8036;SDS011;4061;51.360;7.340;2023-02-12T00:49:52;50.07;;;18.07;;
8036;SDS011;4061;51.360;7.340;2023-02-12T00:52:19;46.27;;;18.90;;
8036;SDS011;4061;51.360;7.340;2023-02-12T00:54:46;44.57;;;15.47;;
8036;SDS011;4061;51.360;7.340;2023-02-12T00:57:13;47.73;;;18.23;;
8036;SDS011;4061;51.360;7.340;2023-02-12T00:59:41;51.33;;;18.47;;
8036;SDS011;4061;51.360;7.340;2023-02-12T01:02:09;49.47;;;17.97;;
8036;SDS011;4061;51.360;7.340;2023-02-12T01:04:36;48.20;;;18.63;;
8036;SDS011;4061;51.360;7.340;2023-02-12T01:07:04;44.57;;;16.70;;
8036;SDS011;4061;51.360;7.340;2023-02-12T01:09:31;47.73;;;18.60;;
8036;SDS011;4061;51.360;7.340;2023-02-12T01:11:58;48.20;;;19.27;;
8036;SDS011;4061;51.360;7.340;2023-02-12T01:14:25;51.97;;;19.73;;
8036;SDS011;4061;51.360;7.340;2023-02-12T01:16:52;49.43;;;17.73;;
8036;SDS011;4061;51.360;7.340;2023-02-12T01:19:21;49.53;;;18.07;;
8036;SDS011;4061;51.360;7.340;2023-02-12T01:21:48;48.77;;;18.67;;
8036;SDS011;4061;51.360;7.340;2023-02-12T01:24:15;52.33;;;18.00;;
8036;SDS011;4061;51.360;7.340;2023-02-12T01:26:43;56.97;;;20.03;;
8036;SDS011;4061;51.360;7.340;2023-02-12T01:29:10;52.20;;;17.83;;
8036;SDS011;4061;51.360;7.340;2023-02-12T01:31:37;53.67;;;19.27;;
8036;SDS011;4061;51.360;7.340;2023-02-12T01:34:06;43.73;;;18.33;;
8036;SDS011;4061;51.360;7.340;2023-02-12T01:36:35;48.73;;;17.77;;
8036;SDS011;4061;51.360;7.340;2023-02-12T01:39:02;52.13;;;19.40;;
8036;SDS011;4061;51.360;7.340;2023-02-12T01:41:30;49.47;;;18.10;;
8036;SDS011;4061;51.360;7.340;2023-02-12T01:44:06;50.93;;;19.70;;
8036;SDS011;4061;51.360;7.340;2023-02-12T01:46:33;51.10;;;18.90;;
8036;SDS011;4061;51.360;7.340;2023-02-12T01:49:00;55.37;;;18.83;;
8036;SDS011;4061;51.360;7.340;2023-02-12T01:51:28;55.07;;;18.90;;
8036;SDS011;4061;51.360;7.340;2023-02-12T01:53:58;54.47;;;17.80;;
8036;SDS011;4061;51.360;7.340;2023-02-12T01:56:26;48.70;;;17.63;;
8036;SDS011;4061;51.360;7.340;2023-02-12T01:58:53;49.93;;;17.53;;
8036;SDS011;4061;51.360;7.340;2023-02-12T02:01:23;44.87;;;17.57;;
8036;SDS011;4061;51.360;7.340;2023-02-12T02:03:52;53.43;;;18.33;;
8036;SDS011;4061;51.360;7.340;2023-02-12T02:06:21;43.53;;;17.57;;
8036;SDS011;4061;51.360;7.340;2023-02-12T02:08:49;43.00;;;17.67;;
8036;SDS011;4061;51.360;7.340;2023-02-12T02:11:18;42.33;;;18.03;;
8036;SDS011;4061;51.360;7.340;2023-02-12T02:14:03;45.77;;;17.07;;
8036;SDS011;4061;51.360;7.340;2023-02-12T02:16:49;44.23;;;18.07;;
8036;SDS011;4061;51.360;7.340;2023-02-12T02:19:24;46.47;;;17.80;;
8036;SDS011;4061;51.360;7.340;2023-02-12T02:22:16;53.20;;;18.20;;
8036;SDS011;4061;51.360;7.340;2023-02-12T02:24:51;52.03;;;18.37;;
8036;SDS011;4061;51.360;7.340;2023-02-12T02:27:22;46.07;;;18.50;;
8036;SDS011;4061;51.360;7.340;2023-02-12T02:30:06;43.43;;;16.80;;
8036;SDS011;4061;51.360;7.340;2023-02-12T02:32:37;45.73;;;17.93;;
8036;SDS011;4061;51.360;7.340;2023-02-12T02:35:09;44.20;;;17.93;;
8036;SDS011;4061;51.360;7.340;2023-02-12T02:37:38;46.90;;;16.70;;
8036;SDS011;4061;51.360;7.340;2023-02-12T02:40:07;46.70;;;18.17;;
8036;SDS011;4061;51.360;7.340;2023-02-12T02:42:36;54.47;;;18.27;;
8036;SDS011;4061;51.360;7.340;2023-02-12T02:45:07;54.10;;;18.33;;
8036;SDS011;4061;51.360;7.340;2023-02-12T02:47:38;49.93;;;18.40;;
8036;SDS011;4061;51.360;7.340;2023-02-12T02:50:08;50.63;;;19.10;;
8036;SDS011;4061;51.360;7.340;2023-02-12T02:52:37;51.50;;;20.13;;
8036;SDS011;4061;51.360;7.340;2023-02-12T02:55:06;55.90;;;18.67;;
8036;SDS011;4061;51.360;7.340;2023-02-12T02:57:35;53.03;;;18.13;;
8036;SDS011;4061;51.360;7.340;2023-02-12T03:00:06;50.40;;;18.50;;
8036;SDS011;4061;51.360;7.340;2023-02-12T03:02:37;62.63;;;20.70;;
8036;SDS011;4061;51.360;7.340;2023-02-12T03:05:07;51.83;;;18.77;;
8036;SDS011;4061;51.360;7.340;2023-02-12T03:07:35;48.13;;;19.50;;
8036;SDS011;4061;51.360;7.340;2023-02-12T03:10:05;45.43;;;16.43;;
8036;SDS011;4061;51.360;7.340;2023-02-12T03:12:35;46.93;;;18.50;;
8036;SDS011;4061;51.360;7.340;2023-02-12T03:15:05;50.27;;;18.40;;
8036;SDS011;4061;51.360;7.340;2023-02-12T03:17:34;47.97;;;16.53;;
8036;SDS011;4061;51.360;7.340;2023-02-12T03:20:06;42.10;;;16.53;;
8036;SDS011;4061;51.360;7.340;2023-02-12T03:22:36;44.23;;;16.93;;
8036;SDS011;4061;51.360;7.340;2023-02-12T03:25:06;40.80;;;16.67;;
8036;SDS011;4061;51.360;7.340;2023-02-12T03:27:36;51.03;;;17.37;;
8036;SDS011;4061;51.360;7.340;2023-02-12T03:30:05;43.93;;;15.97;;
8036;SDS011;4061;51.360;7.340;2023-02-12T03:32:34;41.17;;;17.43;;
8036;SDS011;4061;51.360;7.340;2023-02-12T03:35:11;41.17;;;16.43;;
8036;SDS011;4061;51.360;7.340;2023-02-12T03:37:40;46.50;;;16.50;;
8036;SDS011;4061;51.360;7.340;2023-02-12T03:40:12;39.03;;;15.47;;
8036;SDS011;4061;51.360;7.340;2023-02-12T03:42:43;46.10;;;16.03;;
8036;SDS011;4061;51.360;7.340;2023-02-12T03:45:13;42.47;;;16.63;;
8036;SDS011;4061;51.360;7.340;2023-02-12T03:47:43;40.33;;;16.20;;
8036;SDS011;4061;51.360;7.340;2023-02-12T03:50:14;44.47;;;15.27;;
8036;SDS011;4061;51.360;7.340;2023-02-12T03:52:43;38.63;;;15.07;;
8036;SDS011;4061;51.360;7.340;2023-02-12T03:55:10;37.90;;;16.37;;
8036;SDS011;4061;51.360;7.340;2023-02-12T03:57:38;42.17;;;14.30;;
8036;SDS011;4061;51.360;7.340;2023-02-12T04:00:08;38.23;;;15.23;;
8036;SDS011;4061;51.360;7.340;2023-02-12T04:02:36;35.90;;;14.83;;
8036;SDS011;4061;51.360;7.340;2023-02-12T04:05:04;37.77;;;15.13;;
8036;SDS011;4061;51.360;7.340;2023-02-12T04:07:32;35.67;;;15.13;;
8036;SDS011;4061;51.360;7.340;2023-02-12T04:10:01;41.27;;;14.57;;
8036;SDS011;4061;51.360;7.340;2023-02-12T04:12:37;35.23;;;14.13;;
8036;SDS011;4061;51.360;7.340;2023-02-12T04:15:10;38.23;;;12.93;;
8036;SDS011;4061;51.360;7.340;2023-02-12T04:17:43;33.40;;;13.63;;
8036;SDS011;4061;51.360;7.340;2023-02-12T04:20:16;36.63;;;13.17;;
8036;SDS011;4061;51.360;7.340;2023-02-12T04:22:51;31.83;;;13.73;;
8036;SDS011;4061;51.360;7.340;2023-02-12T04:25:26;33.30;;;13.73;;
8036;SDS011;4061;51.360;7.340;2023-02-12T04:27:58;31.00;;;13.40;;
8036;SDS011;4061;51.360;7.340;2023-02-12T04:30:28;38.93;;;14.00;;
8036;SDS011;4061;51.360;7.340;2023-02-12T04:32:58;30.53;;;14.13;;
8036;SDS011;4061;51.360;7.340;2023-02-12T04:35:29;41.63;;;13.33;;
8036;SDS011;4061;51.360;7.340;2023-02-12T04:38:01;30.23;;;13.17;;
8036;SDS011;4061;51.360;7.340;2023-02-12T04:40:29;35.57;;;15.97;;
8036;SDS011;4061;51.360;7.340;2023-02-12T04:42:57;40.60;;;16.30;;
8036;SDS011;4061;51.360;7.340;2023-02-12T04:45:25;47.77;;;15.30;;
8036;SDS011;4061;51.360;7.340;2023-02-12T04:47:52;39.23;;;15.50;;
8036;SDS011;4061;51.360;7.340;2023-02-12T04:50:19;38.77;;;15.27;;
8036;SDS011;4061;51.360;7.340;2023-02-12T04:52:47;40.43;;;15.40;;
8036;SDS011;4061;51.360;7.340;2023-02-12T04:55:15;35.53;;;15.63;;
8036;SDS011;4061;51.360;7.340;2023-02-12T04:57:42;34.53;;;14.47;;
8036;SDS011;4061;51.360;7.340;2023-02-12T05:00:11;36.70;;;15.50;;
8036;SDS011;4061;51.360;7.340;2023-02-12T05:02:39;37.07;;;13.63;;
8036;SDS011;4061;51.360;7.340;2023-02-12T05:05:06;37.00;;;14.97;;
8036;SDS011;4061;51.360;7.340;2023-02-12T05:10:00;41.33;;;14.93;;
8036;SDS011;4061;51.360;7.340;2023-02-12T05:12:29;34.77;;;14.33;;
8036;SDS011;4061;51.360;7.340;2023-02-12T05:14:56;38.73;;;14.90;;
8036;SDS011;4061;51.360;7.340;2023-02-12T05:17:23;43.93;;;16.07;;
8036;SDS011;4061;51.360;7.340;2023-02-12T05:19:51;35.50;;;14.47;;
8036;SDS011;4061;51.360;7.340;2023-02-12T05:22:18;42.33;;;16.07;;
8036;SDS011;4061;51.360;7.340;2023-02-12T05:24:45;40.37;;;15.40;;
8036;SDS011;4061;51.360;7.340;2023-02-12T05:27:12;44.73;;;15.83;;
8036;SDS011;4061;51.360;7.340;2023-02-12T05:29:41;41.43;;;16.03;;
8036;SDS011;4061;51.360;7.340;2023-02-12T05:32:08;39.50;;;17.20;;
8036;SDS011;4061;51.360;7.340;2023-02-12T05:34:35;41.67;;;15.77;;
8036;SDS011;4061;51.360;7.340;2023-02-12T05:37:03;36.33;;;15.63;;
8036;SDS011;4061;51.360;7.340;2023-02-12T05:39:30;40.03;;;15.33;;
8036;SDS011;4061;51.360;7.340;2023-02-12T05:41:57;44.57;;;16.23;;
8036;SDS011;4061;51.360;7.340;2023-02-12T05:44:24;42.90;;;16.03;;
8036;SDS011;4061;51.360;7.340;2023-02-12T05:46:53;38.63;;;14.87;;
8036;SDS011;4061;51.360;7.340;2023-02-12T05:49:20;43.50;;;16.93;;
8036;SDS011;4061;51.360;7.340;2023-02-12T05:51:47;49.10;;;16.80;;
8036;SDS011;4061;51.360;7.340;2023-02-12T05:54:15;40.13;;;16.20;;
8036;SDS011;4061;51.360;7.340;2023-02-12T05:56:42;41.70;;;15.53;;
8036;SDS011;4061;51.360;7.340;2023-02-12T05:59:12;50.67;;;18.23;;
8036;SDS011;4061;51.360;7.340;2023-02-12T06:01:41;41.20;;;15.17;;
8036;SDS011;4061;51.360;7.340;2023-02-12T06:04:12;40.90;;;15.03;;
8036;SDS011;4061;51.360;7.340;2023-02-12T06:06:40;37.57;;;15.07;;
8036;SDS011;4061;51.360;7.340;2023-02-12T06:09:07;43.30;;;15.17;;
8036;SDS011;4061;51.360;7.340;2023-02-12T06:11:35;41.50;;;16.33;;
8036;SDS011;4061;51.360;7.340;2023-02-12T06:14:02;35.03;;;14.10;;
8036;SDS011;4061;51.360;7.340;2023-02-12T06:16:29;48.03;;;17.00;;
8036;SDS011;4061;51.360;7.340;2023-02-12T06:18:57;45.60;;;16.90;;
8036;SDS011;4061;51.360;7.340;2023-02-12T06:21:26;44.30;;;15.63;;
8036;SDS011;4061;51.360;7.340;2023-02-12T06:23:53;46.17;;;16.70;;
8036;SDS011;4061;51.360;7.340;2023-02-12T06:26:21;41.00;;;14.83;;
8036;SDS011;4061;51.360;7.340;2023-02-12T06:28:48;39.83;;;16.03;;
8036;SDS011;4061;51.360;7.340;2023-02-12T06:31:16;40.60;;;16.53;;
8036;SDS011;4061;51.360;7.340;2023-02-12T06:33:44;42.20;;;16.93;;
8036;SDS011;4061;51.360;7.340;2023-02-12T06:36:11;45.67;;;16.20;;
8036;SDS011;4061;51.360;7.340;2023-02-12T06:38:40;39.27;;;15.83;;
8036;SDS011;4061;51.360;7.340;2023-02-12T06:41:07;34.77;;;14.50;;
8036;SDS011;4061;51.360;7.340;2023-02-12T06:43:34;40.23;;;15.90;;
8036;SDS011;4061;51.360;7.340;2023-02-12T06:46:01;34.03;;;14.90;;
8036;SDS011;4061;51.360;7.340;2023-02-12T06:48:29;37.67;;;15.67;;
8036;SDS011;4061;51.360;7.340;2023-02-12T06:51:02;44.57;;;16.97;;
8036;SDS011;4061;51.360;7.340;2023-02-12T06:53:29;38.20;;;15.67;;
8036;SDS011;4061;51.360;7.340;2023-02-12T06:55:58;34.57;;;15.17;;
8036;SDS011;4061;51.360;7.340;2023-02-12T06:58:25;41.10;;;15.80;;
8036;SDS011;4061;51.360;7.340;2023-02-12T07:00:53;40.43;;;16.10;;
8036;SDS011;4061;51.360;7.340;2023-02-12T07:03:20;43.00;;;16.80;;
8036;SDS011;4061;51.360;7.340;2023-02-12T07:05:47;44.37;;;16.70;;
8036;SDS011;4061;51.360;7.340;2023-02-12T07:08:14;45.30;;;16.43;;
8036;SDS011;4061;51.360;7.340;2023-02-12T07:10:41;40.63;;;16.30;;
8036;SDS011;4061;51.360;7.340;2023-02-12T07:13:10;46.43;;;15.27;;
8036;SDS011;4061;51.360;7.340;2023-02-12T07:15:37;38.80;;;15.03;;
8036;SDS011;4061;51.360;7.340;2023-02-12T07:18:05;47.73;;;15.70;;
8036;SDS011;4061;51.360;7.340;2023-02-12T07:20:32;45.83;;;15.07;;
8036;SDS011;4061;51.360;7.340;2023-02-12T07:22:59;41.20;;;15.87;;
8036;SDS011;4061;51.360;7.340;2023-02-12T07:25:26;44.43;;;17.40;;
8036;SDS011;4061;51.360;7.340;2023-02-12T07:27:53;43.90;;;17.13;;
8036;SDS011;4061;51.360;7.340;2023-02-12T07:30:22;41.00;;;16.53;;
8036;SDS011;4061;51.360;7.340;2023-02-12T07:32:49;47.27;;;17.33;;
8036;SDS011;4061;51.360;7.340;2023-02-12T07:35:16;44.70;;;17.07;;
8036;SDS011;4061;51.360;7.340;2023-02-12T07:37:44;51.70;;;18.37;;
8036;SDS011;4061;51.360;7.340;2023-02-12T07:40:11;58.67;;;18.23;;
8036;SDS011;4061;51.360;7.340;2023-02-12T07:42:38;48.03;;;16.57;;
8036;SDS011;4061;51.360;7.340;2023-02-12T07:45:05;45.77;;;16.33;;
8036;SDS011;4061;51.360;7.340;2023-02-12T07:47:34;42.80;;;17.50;;
8036;SDS011;4061;51.360;7.340;2023-02-12T07:50:02;48.17;;;16.90;;
8036;SDS011;4061;51.360;7.340;2023-02-12T07:52:31;43.63;;;17.03;;
8036;SDS011;4061;51.360;7.340;2023-02-12T07:54:58;52.90;;;17.97;;
8036;SDS011;4061;51.360;7.340;2023-02-12T07:57:25;45.77;;;16.60;;
8036;SDS011;4061;51.360;7.340;2023-02-12T07:59:52;53.97;;;18.17;;
8036;SDS011;4061;51.360;7.340;2023-02-12T08:02:19;45.90;;;17.93;;
8036;SDS011;4061;51.360;7.340;2023-02-12T08:04:53;46.67;;;17.33;;
8036;SDS011;4061;51.360;7.340;2023-02-12T08:07:20;42.50;;;15.87;;
8036;SDS011;4061;51.360;7.340;2023-02-12T08:09:47;47.80;;;17.27;;
8036;SDS011;4061;51.360;7.340;2023-02-12T08:12:15;41.73;;;17.63;;
8036;SDS011;4061;51.360;7.340;2023-02-12T08:14:42;51.10;;;18.93;;
8036;SDS011;4061;51.360;7.340;2023-02-12T08:17:10;51.77;;;18.10;;
8036;SDS011;4061;51.360;7.340;2023-02-12T08:19:37;55.27;;;19.33;;
8036;SDS011;4061;51.360;7.340;2023-02-12T08:22:05;50.23;;;18.73;;
8036;SDS011;4061;51.360;7.340;2023-02-12T08:24:33;51.70;;;17.80;;
8036;SDS011;4061;51.360;7.340;2023-02-12T08:27:00;47.03;;;18.10;;
8036;SDS011;4061;51.360;7.340;2023-02-12T08:29:28;57.83;;;19.73;;
8036;SDS011;4061;51.360;7.340;2023-02-12T08:31:55;43.47;;;17.60;;
8036;SDS011;4061;51.360;7.340;2023-02-12T08:34:24;50.07;;;18.73;;
8036;SDS011;4061;51.360;7.340;2023-02-12T08:36:52;53.27;;;17.13;;
8036;SDS011;4061;51.360;7.340;2023-02-12T08:39:21;44.63;;;16.17;;
8036;SDS011;4061;51.360;7.340;2023-02-12T08:41:48;40.73;;;16.47;;
8036;SDS011;4061;51.360;7.340;2023-02-12T08:44:16;35.10;;;15.20;;
8036;SDS011;4061;51.360;7.340;2023-02-12T08:46:44;37.37;;;14.00;;
8036;SDS011;4061;51.360;7.340;2023-02-12T08:49:12;39.17;;;14.53;;
8036;SDS011;4061;51.360;7.340;2023-02-12T08:51:40;35.60;;;15.40;;
8036;SDS011;4061;51.360;7.340;2023-02-12T08:54:09;39.00;;;12.93;;
8036;SDS011;4061;51.360;7.340;2023-02-12T08:56:38;39.40;;;14.17;;
8036;SDS011;4061;51.360;7.340;2023-02-12T08:59:05;35.40;;;13.77;;
8036;SDS011;4061;51.360;7.340;2023-02-12T09:01:34;30.17;;;13.83;;
8036;SDS011;4061;51.360;7.340;2023-02-12T09:04:02;35.90;;;13.10;;
8036;SDS011;4061;51.360;7.340;2023-02-12T09:06:30;29.73;;;12.40;;
8036;SDS011;4061;51.360;7.340;2023-02-12T09:08:58;30.17;;;13.03;;
8036;SDS011;4061;51.360;7.340;2023-02-12T09:11:26;31.83;;;14.13;;
8036;SDS011;4061;51.360;7.340;2023-02-12T09:13:57;28.70;;;13.03;;
8036;SDS011;4061;51.360;7.340;2023-02-12T09:16:24;28.97;;;13.20;;
8036;SDS011;4061;51.360;7.340;2023-02-12T09:18:51;29.00;;;11.60;;
8036;SDS011;4061;51.360;7.340;2023-02-12T09:21:19;29.97;;;12.80;;
8036;SDS011;4061;51.360;7.340;2023-02-12T09:23:46;28.88;;;12.25;;
8036;SDS011;4061;51.360;7.340;2023-02-12T09:26:14;27.07;;;11.57;;
8036;SDS011;4061;51.360;7.340;2023-02-12T09:28:42;27.03;;;12.20;;
8036;SDS011;4061;51.360;7.340;2023-02-12T09:31:11;21.57;;;11.83;;
8036;SDS011;4061;51.360;7.340;2023-02-12T09:33:38;32.13;;;11.82;;
8036;SDS011;4061;51.360;7.340;2023-02-12T09:36:06;29.10;;;10.57;;
8036;SDS011;4061;51.360;7.340;2023-02-12T09:38:34;21.50;;;10.73;;
8036;SDS011;4061;51.360;7.340;2023-02-12T09:41:06;19.88;;;9.65;;
8036;SDS011;4061;51.360;7.340;2023-02-12T09:43:39;23.93;;;11.00;;
8036;SDS011;4061;51.360;7.340;2023-02-12T09:46:09;24.07;;;9.57;;
8036;SDS011;4061;51.360;7.340;2023-02-12T09:48:44;24.20;;;9.82;;
8036;SDS011;4061;51.360;7.340;2023-02-12T09:51:14;18.60;;;9.70;;
8036;SDS011;4061;51.360;7.340;2023-02-12T09:53:42;21.33;;;9.35;;
8036;SDS011;4061;51.360;7.340;2023-02-12T09:56:12;24.17;;;9.63;;
8036;SDS011;4061;51.360;7.340;2023-02-12T09:58:40;19.23;;;9.55;;
8036;SDS011;4061;51.360;7.340;2023-02-12T10:01:09;30.23;;;10.90;;
8036;SDS011;4061;51.360;7.340;2023-02-12T10:03:37;19.80;;;9.88;;
8036;SDS011;4061;51.360;7.340;2023-02-12T10:06:06;19.10;;;9.20;;
8036;SDS011;4061;51.360;7.340;2023-02-12T10:08:40;20.98;;;9.07;;
8036;SDS011;4061;51.360;7.340;2023-02-12T10:11:14;20.45;;;8.93;;
8036;SDS011;4061;51.360;7.340;2023-02-12T10:13:45;21.70;;;10.40;;
8036;SDS011;4061;51.360;7.340;2023-02-12T10:16:17;23.05;;;9.68;;
8036;SDS011;4061;51.360;7.340;2023-02-12T10:19:02;24.48;;;9.45;;
8036;SDS011;4061;51.360;7.340;2023-02-12T10:21:35;28.55;;;11.05;;
8036;SDS011;4061;51.360;7.340;2023-02-12T10:24:12;24.17;;;9.95;;
8036;SDS011;4061;51.360;7.340;2023-02-12T10:26:45;22.38;;;9.50;;
8036;SDS011;4061;51.360;7.340;2023-02-12T10:29:16;26.25;;;9.52;;
8036;SDS011;4061;51.360;7.340;2023-02-12T10:31:44;20.65;;;9.45;;
8036;SDS011;4061;51.360;7.340;2023-02-12T10:34:14;24.42;;;10.93;;
8036;SDS011;4061;51.360;7.340;2023-02-12T10:36:44;21.10;;;11.00;;
8036;SDS011;4061;51.360;7.340;2023-02-12T10:39:12;20.48;;;8.82;;
8036;SDS011;4061;51.360;7.340;2023-02-12T10:41:42;24.23;;;9.97;;
8036;SDS011;4061;51.360;7.340;2023-02-12T10:44:11;27.00;;;9.77;;
8036;SDS011;4061;51.360;7.340;2023-02-12T10:46:38;26.77;;;12.00;;
8036;SDS011;4061;51.360;7.340;2023-02-12T10:49:05;34.83;;;11.80;;
8036;SDS011;4061;51.360;7.340;2023-02-12T10:51:38;25.55;;;12.45;;
8036;SDS011;4061;51.360;7.340;2023-02-12T10:56:57;25.35;;;10.43;;
8036;SDS011;4061;51.360;7.340;2023-02-12T10:59:25;30.77;;;11.93;;
8036;SDS011;4061;51.360;7.340;2023-02-12T11:01:52;26.98;;;12.13;;
8036;SDS011;4061;51.360;7.340;2023-02-12T11:04:20;25.05;;;11.07;;
8036;SDS011;4061;51.360;7.340;2023-02-12T11:06:55;27.38;;;11.70;;
8036;SDS011;4061;51.360;7.340;2023-02-12T11:09:26;29.55;;;12.63;;
8036;SDS011;4061;51.360;7.340;2023-02-12T11:11:53;35.90;;;14.13;;
8036;SDS011;4061;51.360;7.340;2023-02-12T11:14:22;31.92;;;13.00;;
8036;SDS011;4061;51.360;7.340;2023-02-12T11:16:50;29.80;;;12.30;;
8036;SDS011;4061;51.360;7.340;2023-02-12T11:19:19;35.13;;;13.05;;
8036;SDS011;4061;51.360;7.340;2023-02-12T11:21:46;24.43;;;10.90;;
8036;SDS011;4061;51.360;7.340;2023-02-12T11:24:21;31.02;;;13.02;;
8036;SDS011;4061;51.360;7.340;2023-02-12T11:26:48;28.15;;;11.75;;
8036;SDS011;4061;51.360;7.340;2023-02-12T11:29:16;27.48;;;12.60;;
8036;SDS011;4061;51.360;7.340;2023-02-12T11:31:46;27.40;;;11.18;;
8036;SDS011;4061;51.360;7.340;2023-02-12T11:34:25;28.30;;;12.07;;
8036;SDS011;4061;51.360;7.340;2023-02-12T11:36:53;28.77;;;11.50;;
8036;SDS011;4061;51.360;7.340;2023-02-12T11:39:21;27.70;;;10.93;;
8036;SDS011;4061;51.360;7.340;2023-02-12T11:41:50;28.58;;;12.80;;
8036;SDS011;4061;51.360;7.340;2023-02-12T11:44:19;23.65;;;11.20;;
8036;SDS011;4061;51.360;7.340;2023-02-12T11:46:48;27.65;;;12.02;;
8036;SDS011;4061;51.360;7.340;2023-02-12T11:49:18;30.25;;;12.00;;
8036;SDS011;4061;51.360;7.340;2023-02-12T11:51:46;32.05;;;12.20;;
8036;SDS011;4061;51.360;7.340;2023-02-12T11:54:16;36.78;;;12.52;;
8036;SDS011;4061;51.360;7.340;2023-02-12T11:56:45;32.95;;;12.65;;
8036;SDS011;4061;51.360;7.340;2023-02-12T11:59:28;35.75;;;13.32;;
8036;SDS011;4061;51.360;7.340;2023-02-12T12:01:58;36.58;;;13.52;;
8036;SDS011;4061;51.360;7.340;2023-02-12T12:04:26;31.25;;;12.32;;
8036;SDS011;4061;51.360;7.340;2023-02-12T12:06:57;24.40;;;12.57;;
8036;SDS011;4061;51.360;7.340;2023-02-12T12:09:27;33.00;;;13.70;;
8036;SDS011;4061;51.360;7.340;2023-02-12T12:11:56;29.65;;;12.85;;
8036;SDS011;4061;51.360;7.340;2023-02-12T12:14:26;28.45;;;12.27;;
8036;SDS011;4061;51.360;7.340;2023-02-12T12:16:58;28.88;;;13.52;;
8036;SDS011;4061;51.360;7.340;2023-02-12T12:19:47;31.35;;;13.75;;
8036;SDS011;4061;51.360;7.340;2023-02-12T12:22:24;31.75;;;12.85;;
8036;SDS011;4061;51.360;7.340;2023-02-12T12:24:54;26.70;;;10.55;;
8036;SDS011;4061;51.360;7.340;2023-02-12T12:27:24;21.15;;;10.25;;
8036;SDS011;4061;51.360;7.340;2023-02-12T12:30:14;23.58;;;11.05;;
8036;SDS011;4061;51.360;7.340;2023-02-12T12:32:44;24.37;;;10.30;;
8036;SDS011;4061;51.360;7.340;2023-02-12T12:35:13;24.05;;;10.68;;
8036;SDS011;4061;51.360;7.340;2023-02-12T12:37:42;20.43;;;9.67;;
8036;SDS011;4061;51.360;7.340;2023-02-12T12:40:18;25.98;;;10.07;;
8036;SDS011;4061;51.360;7.340;2023-02-12T12:43:03;25.80;;;11.83;;
8036;SDS011;4061;51.360;7.340;2023-02-12T12:45:42;26.67;;;10.95;;
8036;SDS011;4061;51.360;7.340;2023-02-12T12:48:19;27.13;;;11.13;;
8036;SDS011;4061;51.360;7.340;2023-02-12T12:50:54;24.02;;;10.85;;
8036;SDS011;4061;51.360;7.340;2023-02-12T12:58:59;24.50;;;10.17;;
8036;SDS011;4061;51.360;7.340;2023-02-12T13:01:41;26.13;;;10.68;;
8036;SDS011;4061;51.360;7.340;2023-02-12T13:04:29;21.37;;;9.67;;
8036;SDS011;4061;51.360;7.340;2023-02-12T13:07:01;25.23;;;12.57;;
8036;SDS011;4061;51.360;7.340;2023-02-12T13:09:45;25.73;;;10.90;;
8036;SDS011;4061;51.360;7.340;2023-02-12T13:15:00;20.88;;;9.38;;
8036;SDS011;4061;51.360;7.340;2023-02-12T13:17:28;21.10;;;10.45;;
8036;SDS011;4061;51.360;7.340;2023-02-12T13:20:03;22.35;;;10.63;;
8036;SDS011;4061;51.360;7.340;2023-02-12T13:22:32;22.83;;;9.23;;
8036;SDS011;4061;51.360;7.340;2023-02-12T13:25:05;21.17;;;10.13;;
8036;SDS011;4061;51.360;7.340;2023-02-12T13:27:34;22.63;;;10.27;;
8036;SDS011;4061;51.360;7.340;2023-02-12T13:30:05;25.83;;;10.23;;
8036;SDS011;4061;51.360;7.340;2023-02-12T13:32:33;16.65;;;8.63;;
8036;SDS011;4061;51.360;7.340;2023-02-12T13:35:03;17.67;;;8.00;;
8036;SDS011;4061;51.360;7.340;2023-02-12T13:37:32;19.65;;;8.38;;
8036;SDS011;4061;51.360;7.340;2023-02-12T13:40:02;17.17;;;8.18;;
8036;SDS011;4061;51.360;7.340;2023-02-12T13:42:34;21.35;;;10.27;;
8036;SDS011;4061;51.360;7.340;2023-02-12T13:45:06;20.98;;;9.02;;
8036;SDS011;4061;51.360;7.340;2023-02-12T13:47:40;20.00;;;9.20;;
8036;SDS011;4061;51.360;7.340;2023-02-12T13:50:19;14.57;;;7.30;;
8036;SDS011;4061;51.360;7.340;2023-02-12T13:52:51;20.07;;;8.10;;
8036;SDS011;4061;51.360;7.340;2023-02-12T13:55:21;16.98;;;7.43;;
8036;SDS011;4061;51.360;7.340;2023-02-12T14:03:22;15.43;;;7.90;;
8036;SDS011;4061;51.360;7.340;2023-02-12T14:06:02;14.90;;;7.57;;
8036;SDS011;4061;51.360;7.340;2023-02-12T14:08:33;17.33;;;7.47;;
8036;SDS011;4061;51.360;7.340;2023-02-12T14:11:02;18.10;;;7.47;;
8036;SDS011;4061;51.360;7.340;2023-02-12T14:13:30;16.65;;;8.38;;
8036;SDS011;4061;51.360;7.340;2023-02-12T14:16:17;15.40;;;7.22;;
8036;SDS011;4061;51.360;7.340;2023-02-12T14:18:45;18.67;;;8.07;;
8036;SDS011;4061;51.360;7.340;2023-02-12T14:26:54;13.50;;;7.50;;
8036;SDS011;4061;51.360;7.340;2023-02-12T14:29:21;15.23;;;7.40;;
8036;SDS011;4061;51.360;7.340;2023-02-12T14:31:49;18.35;;;7.82;;
8036;SDS011;4061;51.360;7.340;2023-02-12T14:40:07;17.80;;;7.80;;
8036;SDS011;4061;51.360;7.340;2023-02-12T14:42:56;22.23;;;8.27;;
8036;SDS011;4061;51.360;7.340;2023-02-12T14:45:27;16.75;;;8.50;;
8036;SDS011;4061;51.360;7.340;2023-02-12T14:47:55;20.58;;;8.25;;
8036;SDS011;4061;51.360;7.340;2023-02-12T14:50:28;20.00;;;9.18;;
8036;SDS011;4061;51.360;7.340;2023-02-12T14:52:58;21.65;;;9.13;;
8036;SDS011;4061;51.360;7.340;2023-02-12T14:55:26;17.67;;;8.50;;
8036;SDS011;4061;51.360;7.340;2023-02-12T14:57:57;18.25;;;9.20;;
8036;SDS011;4061;51.360;7.340;2023-02-12T15:00:26;17.88;;;8.55;;
8036;SDS011;4061;51.360;7.340;2023-02-12T15:02:54;17.20;;;8.10;;
8036;SDS011;4061;51.360;7.340;2023-02-12T15:05:24;17.17;;;8.93;;
8036;SDS011;4061;51.360;7.340;2023-02-12T15:07:54;19.17;;;8.77;;
8036;SDS011;4061;51.360;7.340;2023-02-12T15:10:23;19.60;;;8.75;;
8036;SDS011;4061;51.360;7.340;2023-02-12T15:12:52;27.67;;;10.60;;
8036;SDS011;4061;51.360;7.340;2023-02-12T15:15:24;28.80;;;10.37;;
8036;SDS011;4061;51.360;7.340;2023-02-12T15:17:55;20.10;;;9.30;;
8036;SDS011;4061;51.360;7.340;2023-02-12T15:20:25;20.97;;;10.47;;
8036;SDS011;4061;51.360;7.340;2023-02-12T15:22:56;18.75;;;9.35;;
8036;SDS011;4061;51.360;7.340;2023-02-12T15:25:24;17.17;;;9.57;;
8036;SDS011;4061;51.360;7.340;2023-02-12T15:27:53;19.47;;;9.37;;
8036;SDS011;4061;51.360;7.340;2023-02-12T15:30:21;22.97;;;10.40;;
8036;SDS011;4061;51.360;7.340;2023-02-12T15:32:51;22.65;;;11.05;;
8036;SDS011;4061;51.360;7.340;2023-02-12T15:35:19;19.07;;;9.70;;